sensor_id;sensor_type;location;lat;lon;timestamp;pressure;altitude;pressure_sealevel;temperature;humidity
7335;BME280;3708;42.632;23.378;2023-05-21T00:02:03;94176.63;;;19.26;52.41
7335;BME280;3708;42.632;23.378;2023-05-21T00:04:30;94181.22;;;19.29;52.68
7335;BME280;3708;42.632;23.378;2023-05-21T00:06:58;94186.97;;;19.38;52.44
7335;BME280;3708;42.632;23.378;2023-05-21T00:09:25;94178.22;;;19.38;52.43
7335;BME280;3708;42.632;23.378;2023-05-21T00:11:52;94175.59;;;19.38;52.26
7335;BME280;3708;42.632;23.378;2023-05-21T00:14:20;94175.59;;;19.45;51.70
7335;BME280;3708;42.632;23.378;2023-05-21T00:16:47;94171.03;;;19.42;51.78
7335;BME280;3708;42.632;23.378;2023-05-21T00:19:14;94167.22;;;19.36;51.49
7335;BME280;3708;42.632;23.378;2023-05-21T00:21:41;94170.28;;;19.38;51.57
7335;BME280;3708;42.632;23.378;2023-05-21T00:24:10;94170.97;;;19.28;51.19
7335;BME280;3708;42.632;23.378;2023-05-21T00:26:37;94167.84;;;19.04;51.04
7335;BME280;3708;42.632;23.378;2023-05-21T00:29:04;94165.91;;;18.94;51.43
7335;BME280;3708;42.632;23.378;2023-05-21T00:31:33;94162.91;;;19.03;51.46
7335;BME280;3708;42.632;23.378;2023-05-21T00:34:00;94156.09;;;19.09;51.50
7335;BME280;3708;42.632;23.378;2023-05-21T00:36:26;94159.13;;;19.11;51.63
7335;BME280;3708;42.632;23.378;2023-05-21T00:38:55;94160.31;;;19.21;51.59
7335;BME280;3708;42.632;23.378;2023-05-21T00:41:22;94156.91;;;19.20;51.50
7335;BME280;3708;42.632;23.378;2023-05-21T00:43:50;94154.97;;;19.14;51.34
7335;BME280;3708;42.632;23.378;2023-05-21T00:46:18;94153.06;;;19.03;51.38
7335;BME280;3708;42.632;23.378;2023-05-21T00:48:47;94151.84;;;18.90;51.67
7335;BME280;3708;42.632;23.378;2023-05-21T00:51:15;94154.16;;;18.99;51.50
7335;BME280;3708;42.632;23.378;2023-05-21T00:53:43;94150.75;;;18.98;51.30
7335;BME280;3708;42.632;23.378;2023-05-21T00:56:11;94148.91;;;19.06;51.40
7335;BME280;3708;42.632;23.378;2023-05-21T00:58:38;94155.38;;;19.12;51.24
7335;BME280;3708;42.632;23.378;2023-05-21T01:01:05;94148.16;;;19.13;51.19
7335;BME280;3708;42.632;23.378;2023-05-21T01:03:38;94151.16;;;19.08;51.18
7335;BME280;3708;42.632;23.378;2023-05-21T01:06:08;94145.13;;;19.14;51.24
7335;BME280;3708;42.632;23.378;2023-05-21T01:08:35;94154.25;;;19.20;51.36
7335;BME280;3708;42.632;23.378;2023-05-21T01:11:04;94147.78;;;19.18;51.46
7335;BME280;3708;42.632;23.378;2023-05-21T01:13:33;94145.88;;;19.11;51.46
7335;BME280;3708;42.632;23.378;2023-05-21T01:16:03;94147.38;;;19.05;51.31
7335;BME280;3708;42.632;23.378;2023-05-21T01:18:33;94144.91;;;18.14;55.05
7335;BME280;3708;42.632;23.378;2023-05-21T01:21:02;94139.34;;;18.26;55.01
7335;BME280;3708;42.632;23.378;2023-05-21T01:23:30;94139.56;;;18.58;54.58
7335;BME280;3708;42.632;23.378;2023-05-21T01:25:57;94153.31;;;18.74;54.00
7335;BME280;3708;42.632;23.378;2023-05-21T01:28:24;94133.59;;;18.78;54.01
7335;BME280;3708;42.632;23.378;2023-05-21T01:30:51;94137.63;;;18.55;54.52
7335;BME280;3708;42.632;23.378;2023-05-21T01:33:22;94131.59;;;18.54;55.18
7335;BME280;3708;42.632;23.378;2023-05-21T01:35:55;94130.94;;;18.78;55.03
7335;BME280;3708;42.632;23.378;2023-05-21T01:38:30;94120.34;;;18.85;54.39
7335;BME280;3708;42.632;23.378;2023-05-21T01:41:01;94119.19;;;18.76;54.88
7335;BME280;3708;42.632;23.378;2023-05-21T01:43:32;94122.53;;;18.62;55.61
7335;BME280;3708;42.632;23.378;2023-05-21T01:46:00;94128.28;;;18.78;55.21
7335;BME280;3708;42.632;23.378;2023-05-21T01:48:28;94138.13;;;18.74;55.20
7335;BME280;3708;42.632;23.378;2023-05-21T01:50:57;94131.38;;;18.87;55.07
7335;BME280;3708;42.632;23.378;2023-05-21T01:53:25;94123.06;;;18.92;54.80
7335;BME280;3708;42.632;23.378;2023-05-21T01:55:54;94132.13;;;18.91;54.94
7335;BME280;3708;42.632;23.378;2023-05-21T01:58:21;94126.09;;;18.94;54.87
7335;BME280;3708;42.632;23.378;2023-05-21T02:00:48;94121.56;;;19.02;54.83
7335;BME280;3708;42.632;23.378;2023-05-21T02:03:16;94127.28;;;19.04;54.88
7335;BME280;3708;42.632;23.378;2023-05-21T02:05:43;94125.31;;;18.90;55.10
7335;BME280;3708;42.632;23.378;2023-05-21T02:08:10;94127.63;;;19.02;55.01
7335;BME280;3708;42.632;23.378;2023-05-21T02:10:37;94121.59;;;19.06;54.83
7335;BME280;3708;42.632;23.378;2023-05-21T02:13:05;94122.34;;;19.06;54.91
7335;BME280;3708;42.632;23.378;2023-05-21T02:15:32;94119.28;;;19.00;54.80
7335;BME280;3708;42.632;23.378;2023-05-21T02:17:59;94111.41;;;18.43;57.62
7335;BME280;3708;42.632;23.378;2023-05-21T02:20:26;94118.84;;;18.19;58.89
7335;BME280;3708;42.632;23.378;2023-05-21T02:22:53;94119.66;;;17.03;62.83
7335;BME280;3708;42.632;23.378;2023-05-21T02:25:20;94125.31;;;17.01;63.25
7335;BME280;3708;42.632;23.378;2023-05-21T02:27:47;94112.16;;;16.75;64.34
7335;BME280;3708;42.632;23.378;2023-05-21T02:30:19;94113.09;;;17.23;63.41
7335;BME280;3708;42.632;23.378;2023-05-21T02:32:46;94109.66;;;17.22;63.11
7335;BME280;3708;42.632;23.378;2023-05-21T02:35:14;94113.66;;;16.72;64.71
7335;BME280;3708;42.632;23.378;2023-05-21T02:37:40;94121.56;;;16.43;65.93
7335;BME280;3708;42.632;23.378;2023-05-21T02:40:08;94113.88;;;16.60;65.29
7335;BME280;3708;42.632;23.378;2023-05-21T02:42:35;94115.53;;;16.46;65.80
7335;BME280;3708;42.632;23.378;2023-05-21T02:45:04;94111.94;;;16.31;66.30
7335;BME280;3708;42.632;23.378;2023-05-21T02:47:33;94116.88;;;16.59;65.89
7335;BME280;3708;42.632;23.378;2023-05-21T02:49:59;94117.03;;;17.06;64.81
7335;BME280;3708;42.632;23.378;2023-05-21T02:52:27;94106.56;;;17.17;64.03
7335;BME280;3708;42.632;23.378;2023-05-21T02:54:54;94111.03;;;17.09;64.07
7335;BME280;3708;42.632;23.378;2023-05-21T02:57:20;94113.69;;;17.49;63.32
7335;BME280;3708;42.632;23.378;2023-05-21T02:59:47;94109.00;;;17.73;62.37
7335;BME280;3708;42.632;23.378;2023-05-21T03:02:14;94104.44;;;17.66;61.77
7335;BME280;3708;42.632;23.378;2023-05-21T03:04:42;94105.56;;;17.65;61.72
7335;BME280;3708;42.632;23.378;2023-05-21T03:07:11;94109.47;;;17.82;61.48
7335;BME280;3708;42.632;23.378;2023-05-21T03:09:39;94107.78;;;18.07;61.01
7335;BME280;3708;42.632;23.378;2023-05-21T03:12:07;94109.34;;;18.15;60.21
7335;BME280;3708;42.632;23.378;2023-05-21T03:14:34;94109.75;;;18.20;60.47
7335;BME280;3708;42.632;23.378;2023-05-21T03:17:01;94109.06;;;18.31;60.16
7335;BME280;3708;42.632;23.378;2023-05-21T03:19:30;94110.25;;;18.37;59.89
7335;BME280;3708;42.632;23.378;2023-05-21T03:22:00;94114.47;;;18.48;59.53
7335;BME280;3708;42.632;23.378;2023-05-21T03:24:27;94108.44;;;18.51;59.33
7335;BME280;3708;42.632;23.378;2023-05-21T03:26:54;94111.16;;;18.58;58.98
7335;BME280;3708;42.632;23.378;2023-05-21T03:29:21;94118.00;;;18.63;58.76
7335;BME280;3708;42.632;23.378;2023-05-21T03:31:48;94111.56;;;18.67;58.66
7335;BME280;3708;42.632;23.378;2023-05-21T03:34:15;94110.84;;;18.77;58.48
7335;BME280;3708;42.632;23.378;2023-05-21T03:36:44;94118.47;;;18.82;58.11
7335;BME280;3708;42.632;23.378;2023-05-21T03:39:12;94123.03;;;18.89;57.94
7335;BME280;3708;42.632;23.378;2023-05-21T03:41:39;94117.66;;;18.78;57.80
7335;BME280;3708;42.632;23.378;2023-05-21T03:44:06;94113.16;;;18.86;57.22
7335;BME280;3708;42.632;23.378;2023-05-21T03:46:33;94119.28;;;19.00;56.69
7335;BME280;3708;42.632;23.378;2023-05-21T03:49:00;94122.34;;;19.06;56.45
7335;BME280;3708;42.632;23.378;2023-05-21T03:51:27;94113.28;;;19.11;56.57
7335;BME280;3708;42.632;23.378;2023-05-21T03:53:56;94114.03;;;19.18;56.30
7335;BME280;3708;42.632;23.378;2023-05-21T03:56:24;94123.53;;;19.23;55.48
7335;BME280;3708;42.632;23.378;2023-05-21T03:58:51;94119.00;;;19.23;55.41
7335;BME280;3708;42.632;23.378;2023-05-21T04:01:18;94120.91;;;19.30;55.32
7335;BME280;3708;42.632;23.378;2023-05-21T04:03:45;94128.50;;;19.28;54.19
7335;BME280;3708;42.632;23.378;2023-05-21T04:06:12;94126.25;;;19.40;53.97
7335;BME280;3708;42.632;23.378;2023-05-21T04:08:40;94120.97;;;19.51;52.89
7335;BME280;3708;42.632;23.378;2023-05-21T04:11:07;94114.88;;;19.54;52.48
7335;BME280;3708;42.632;23.378;2023-05-21T04:13:35;94116.38;;;19.37;51.29
7335;BME280;3708;42.632;23.378;2023-05-21T04:16:02;94130.03;;;19.39;50.87
7335;BME280;3708;42.632;23.378;2023-05-21T04:18:29;94122.84;;;19.40;52.05
7335;BME280;3708;42.632;23.378;2023-05-21T04:20:56;94116.06;;;19.60;52.77
7335;BME280;3708;42.632;23.378;2023-05-21T04:23:23;94124.00;;;19.56;50.91
7335;BME280;3708;42.632;23.378;2023-05-21T04:25:50;94122.50;;;19.69;51.01
7335;BME280;3708;42.632;23.378;2023-05-21T04:28:17;94123.25;;;19.84;50.78
7335;BME280;3708;42.632;23.378;2023-05-21T04:30:45;94123.66;;;19.93;50.61
7335;BME280;3708;42.632;23.378;2023-05-21T04:33:12;94120.25;;;19.89;50.61
7335;BME280;3708;42.632;23.378;2023-05-21T04:35:45;94122.50;;;19.76;49.31
7335;BME280;3708;42.632;23.378;2023-05-21T04:38:15;94121.00;;;19.79;50.08
7335;BME280;3708;42.632;23.378;2023-05-21T04:40:44;94118.31;;;19.65;49.40
7335;BME280;3708;42.632;23.378;2023-05-21T04:43:11;94118.34;;;19.90;49.55
7335;BME280;3708;42.632;23.378;2023-05-21T04:45:38;94122.16;;;19.82;48.62
7335;BME280;3708;42.632;23.378;2023-05-21T04:48:06;94128.97;;;19.68;48.47
7335;BME280;3708;42.632;23.378;2023-05-21T04:50:33;94132.00;;;19.95;47.97
7335;BME280;3708;42.632;23.378;2023-05-21T04:53:00;94132.41;;;20.11;47.86
7335;BME280;3708;42.632;23.378;2023-05-21T04:55:27;94128.97;;;20.14;46.66
7335;BME280;3708;42.632;23.378;2023-05-21T04:57:54;94132.78;;;20.31;46.50
7335;BME280;3708;42.632;23.378;2023-05-21T05:00:21;94125.16;;;20.47;46.81
7335;BME280;3708;42.632;23.378;2023-05-21T05:02:50;94123.25;;;20.40;45.99
7335;BME280;3708;42.632;23.378;2023-05-21T05:05:18;94122.91;;;20.31;45.83
7335;BME280;3708;42.632;23.378;2023-05-21T05:07:45;94127.06;;;20.46;45.70
7335;BME280;3708;42.632;23.378;2023-05-21T05:10:12;94127.75;;;20.79;45.78
7335;BME280;3708;42.632;23.378;2023-05-21T05:12:39;94122.38;;;20.86;45.28
7335;BME280;3708;42.632;23.378;2023-05-21T05:15:07;94126.16;;;20.95;44.88
7335;BME280;3708;42.632;23.378;2023-05-21T05:17:34;94124.91;;;21.28;44.84
7335;BME280;3708;42.632;23.378;2023-05-21T05:20:01;94126.00;;;21.41;44.50
7335;BME280;3708;42.632;23.378;2023-05-21T05:22:29;94125.88;;;21.55;44.22
7335;BME280;3708;42.632;23.378;2023-05-21T05:24:56;94127.69;;;21.72;43.56
7335;BME280;3708;42.632;23.378;2023-05-21T05:27:23;94118.44;;;21.22;43.34
7335;BME280;3708;42.632;23.378;2023-05-21T05:29:50;94126.28;;;21.50;43.17
7335;BME280;3708;42.632;23.378;2023-05-21T05:32:16;94127.34;;;21.63;43.46
7335;BME280;3708;42.632;23.378;2023-05-21T05:34:44;94128.72;;;21.89;42.96
7335;BME280;3708;42.632;23.378;2023-05-21T05:37:11;94128.72;;;21.92;43.06
7335;BME280;3708;42.632;23.378;2023-05-21T05:39:40;94127.78;;;22.17;42.12
7335;BME280;3708;42.632;23.378;2023-05-21T05:42:07;94119.59;;;22.34;42.21
7335;BME280;3708;42.632;23.378;2023-05-21T05:44:34;94125.34;;;22.33;41.35
7335;BME280;3708;42.632;23.378;2023-05-21T05:47:01;94118.28;;;22.53;40.69
7335;BME280;3708;42.632;23.378;2023-05-21T05:49:27;94112.81;;;22.67;40.31
7335;BME280;3708;42.632;23.378;2023-05-21T05:51:54;94112.38;;;22.72;40.73
7335;BME280;3708;42.632;23.378;2023-05-21T05:54:21;94121.13;;;22.76;40.42
7335;BME280;3708;42.632;23.378;2023-05-21T05:56:49;94121.00;;;22.87;40.59
7335;BME280;3708;42.632;23.378;2023-05-21T05:59:16;94118.78;;;22.82;40.17
7335;BME280;3708;42.632;23.378;2023-05-21T06:01:43;94114.88;;;22.86;40.51
7335;BME280;3708;42.632;23.378;2023-05-21T06:04:10;94121.00;;;22.87;40.19
7335;BME280;3708;42.632;23.378;2023-05-21T06:06:36;94115.03;;;23.09;40.36
7335;BME280;3708;42.632;23.378;2023-05-21T06:09:03;94114.25;;;23.09;40.74
7335;BME280;3708;42.632;23.378;2023-05-21T06:11:30;94109.81;;;23.29;39.79
7335;BME280;3708;42.632;23.378;2023-05-21T06:13:58;94108.69;;;23.57;39.33
7335;BME280;3708;42.632;23.378;2023-05-21T06:16:26;94110.19;;;23.58;39.33
7335;BME280;3708;42.632;23.378;2023-05-21T06:18:55;94117.22;;;23.48;39.02
7335;BME280;3708;42.632;23.378;2023-05-21T06:21:23;94103.59;;;23.66;39.23
7335;BME280;3708;42.632;23.378;2023-05-21T06:24:03;94106.31;;;23.62;39.68
7335;BME280;3708;42.632;23.378;2023-05-21T06:26:35;94113.69;;;23.24;40.25
7335;BME280;3708;42.632;23.378;2023-05-21T06:29:11;94104.13;;;23.23;40.21
7335;BME280;3708;42.632;23.378;2023-05-21T06:31:48;94097.06;;;23.10;41.01
7335;BME280;3708;42.632;23.378;2023-05-21T06:34:21;94101.66;;;23.09;40.98
7335;BME280;3708;42.632;23.378;2023-05-21T06:36:53;94092.25;;;23.28;40.29
7335;BME280;3708;42.632;23.378;2023-05-21T06:39:30;94109.47;;;23.23;40.23
7335;BME280;3708;42.632;23.378;2023-05-21T06:41:59;94098.94;;;23.43;39.90
7335;BME280;3708;42.632;23.378;2023-05-21T06:44:27;94097.47;;;23.38;40.11
7335;BME280;3708;42.632;23.378;2023-05-21T06:46:54;94096.56;;;23.48;40.06
7335;BME280;3708;42.632;23.378;2023-05-21T06:49:21;94093.94;;;23.45;40.47
7335;BME280;3708;42.632;23.378;2023-05-21T06:51:48;94096.53;;;23.52;40.01
7335;BME280;3708;42.632;23.378;2023-05-21T06:54:15;94099.84;;;23.29;40.86
7335;BME280;3708;42.632;23.378;2023-05-21T06:56:41;94100.75;;;23.19;41.07
7335;BME280;3708;42.632;23.378;2023-05-21T06:59:08;94095.28;;;23.30;40.76
7335;BME280;3708;42.632;23.378;2023-05-21T07:01:36;94100.25;;;23.58;40.76
7335;BME280;3708;42.632;23.378;2023-05-21T07:04:06;94096.91;;;23.77;40.13
7335;BME280;3708;42.632;23.378;2023-05-21T07:06:33;94091.16;;;24.05;40.06
7335;BME280;3708;42.632;23.378;2023-05-21T07:09:01;94087.00;;;24.24;39.08
7335;BME280;3708;42.632;23.378;2023-05-21T07:11:27;94084.28;;;24.28;38.96
7335;BME280;3708;42.632;23.378;2023-05-21T07:13:56;94076.94;;;24.32;39.09
7335;BME280;3708;42.632;23.378;2023-05-21T07:16:24;94079.44;;;23.96;37.65
7335;BME280;3708;42.632;23.378;2023-05-21T07:18:53;94085.38;;;24.07;39.13
7335;BME280;3708;42.632;23.378;2023-05-21T07:21:20;94084.81;;;23.96;40.13
7335;BME280;3708;42.632;23.378;2023-05-21T07:23:46;94076.94;;;24.32;39.10
7335;BME280;3708;42.632;23.378;2023-05-21T07:26:13;94085.63;;;24.59;38.90
7335;BME280;3708;42.632;23.378;2023-05-21T07:28:40;94091.50;;;24.93;38.11
7335;BME280;3708;42.632;23.378;2023-05-21T07:31:09;94086.22;;;25.09;37.86
7335;BME280;3708;42.632;23.378;2023-05-21T07:33:37;94090.13;;;24.85;37.40
7335;BME280;3708;42.632;23.378;2023-05-21T07:36:06;94091.88;;;24.95;37.72
7335;BME280;3708;42.632;23.378;2023-05-21T07:38:33;94090.78;;;25.28;38.34
7335;BME280;3708;42.632;23.378;2023-05-21T07:41:00;94084.09;;;25.56;37.48
7335;BME280;3708;42.632;23.378;2023-05-21T07:43:30;94092.50;;;25.74;38.47
7335;BME280;3708;42.632;23.378;2023-05-21T07:45:57;94094.84;;;25.72;38.39
7335;BME280;3708;42.632;23.378;2023-05-21T07:48:24;94097.66;;;25.49;36.41
7335;BME280;3708;42.632;23.378;2023-05-21T07:50:51;94101.16;;;25.46;37.13
7335;BME280;3708;42.632;23.378;2023-05-21T07:53:19;94096.81;;;25.52;35.75
7335;BME280;3708;42.632;23.378;2023-05-21T07:55:46;94090.03;;;25.47;35.96
7335;BME280;3708;42.632;23.378;2023-05-21T07:58:14;94088.34;;;24.98;36.32
7335;BME280;3708;42.632;23.378;2023-05-21T08:00:42;94089.34;;;25.24;35.39
7335;BME280;3708;42.632;23.378;2023-05-21T08:03:12;94095.28;;;25.15;35.03
7335;BME280;3708;42.632;23.378;2023-05-21T08:05:40;94090.53;;;25.23;34.89
7335;BME280;3708;42.632;23.378;2023-05-21T08:08:09;94082.84;;;25.25;35.10
7335;BME280;3708;42.632;23.378;2023-05-21T08:10:38;94095.09;;;25.61;35.26
7335;BME280;3708;42.632;23.378;2023-05-21T08:13:05;94094.09;;;25.71;32.97
7335;BME280;3708;42.632;23.378;2023-05-21T08:15:33;94081.25;;;25.95;32.79
7335;BME280;3708;42.632;23.378;2023-05-21T08:18:00;94090.25;;;25.73;32.35
7335;BME280;3708;42.632;23.378;2023-05-21T08:20:27;94084.78;;;25.76;31.09
7335;BME280;3708;42.632;23.378;2023-05-21T08:22:55;94090.03;;;25.28;31.46
7335;BME280;3708;42.632;23.378;2023-05-21T08:25:22;94080.72;;;25.16;31.61
7335;BME280;3708;42.632;23.378;2023-05-21T08:27:53;94080.78;;;24.73;33.05
7335;BME280;3708;42.632;23.378;2023-05-21T08:30:20;94082.41;;;24.67;33.23
7335;BME280;3708;42.632;23.378;2023-05-21T08:32:47;94075.63;;;25.02;33.01
7335;BME280;3708;42.632;23.378;2023-05-21T08:35:14;94080.03;;;24.73;32.54
7335;BME280;3708;42.632;23.378;2023-05-21T08:37:41;94084.75;;;24.65;33.26
7335;BME280;3708;42.632;23.378;2023-05-21T08:40:09;94089.81;;;24.40;32.55
7335;BME280;3708;42.632;23.378;2023-05-21T08:42:41;94084.28;;;24.70;32.31
7335;BME280;3708;42.632;23.378;2023-05-21T08:45:10;94087.16;;;24.60;33.27
7335;BME280;3708;42.632;23.378;2023-05-21T08:47:40;94089.31;;;25.08;32.81
7335;BME280;3708;42.632;23.378;2023-05-21T08:50:09;94084.19;;;25.33;32.86
7335;BME280;3708;42.632;23.378;2023-05-21T08:52:36;94083.72;;;25.18;33.27
7335;BME280;3708;42.632;23.378;2023-05-21T08:55:04;94082.34;;;25.65;33.29
7335;BME280;3708;42.632;23.378;2023-05-21T08:57:31;94090.84;;;25.96;32.82
7335;BME280;3708;42.632;23.378;2023-05-21T08:59:58;94080.75;;;25.84;33.10
7335;BME280;3708;42.632;23.378;2023-05-21T09:02:28;94071.03;;;26.22;33.23
7335;BME280;3708;42.632;23.378;2023-05-21T09:04:59;94089.34;;;26.11;32.80
7335;BME280;3708;42.632;23.378;2023-05-21T09:07:28;94090.19;;;26.08;32.85
7335;BME280;3708;42.632;23.378;2023-05-21T09:09:56;94087.94;;;26.52;32.71
7335;BME280;3708;42.632;23.378;2023-05-21T09:12:24;94091.47;;;26.48;32.74
7335;BME280;3708;42.632;23.378;2023-05-21T09:14:51;94090.41;;;26.14;32.33
7335;BME280;3708;42.632;23.378;2023-05-21T09:17:18;94093.69;;;26.21;32.16
7335;BME280;3708;42.632;23.378;2023-05-21T09:20:11;94098.28;;;25.89;30.80
7335;BME280;3708;42.632;23.378;2023-05-21T09:22:40;94097.63;;;26.17;29.45
7335;BME280;3708;42.632;23.378;2023-05-21T09:25:09;94099.06;;;26.21;29.08
7335;BME280;3708;42.632;23.378;2023-05-21T09:27:37;94091.66;;;26.41;29.16
7335;BME280;3708;42.632;23.378;2023-05-21T09:30:08;94095.56;;;26.24;28.32
7335;BME280;3708;42.632;23.378;2023-05-21T09:32:36;94093.25;;;26.39;27.97
7335;BME280;3708;42.632;23.378;2023-05-21T09:35:06;94086.25;;;26.13;28.33
7335;BME280;3708;42.632;23.378;2023-05-21T09:37:37;94088.06;;;26.32;28.50
7335;BME280;3708;42.632;23.378;2023-05-21T09:40:09;94080.72;;;26.48;27.40
7335;BME280;3708;42.632;23.378;2023-05-21T09:42:38;94083.47;;;26.61;28.10
7335;BME280;3708;42.632;23.378;2023-05-21T09:45:06;94086.41;;;26.67;27.59
7335;BME280;3708;42.632;23.378;2023-05-21T09:47:33;94087.28;;;25.51;28.49
7335;BME280;3708;42.632;23.378;2023-05-21T09:49:59;94088.03;;;25.84;28.24
7335;BME280;3708;42.632;23.378;2023-05-21T09:52:26;94085.47;;;26.12;27.92
7335;BME280;3708;42.632;23.378;2023-05-21T09:54:56;94081.09;;;26.34;27.50
7335;BME280;3708;42.632;23.378;2023-05-21T09:57:24;94086.25;;;26.74;27.08
7335;BME280;3708;42.632;23.378;2023-05-21T09:59:51;94081.25;;;27.01;27.42
7335;BME280;3708;42.632;23.378;2023-05-21T10:02:19;94075.28;;;26.52;27.98
7335;BME280;3708;42.632;23.378;2023-05-21T10:04:48;94070.56;;;26.56;27.47
7335;BME280;3708;42.632;23.378;2023-05-21T10:07:17;94074.47;;;26.96;26.79
7335;BME280;3708;42.632;23.378;2023-05-21T10:09:46;94071.34;;;27.39;27.52
7335;BME280;3708;42.632;23.378;2023-05-21T10:12:17;94069.63;;;27.70;26.38
7335;BME280;3708;42.632;23.378;2023-05-21T10:14:46;94070.94;;;27.53;25.78
7335;BME280;3708;42.632;23.378;2023-05-21T10:17:16;94067.25;;;27.72;25.12
7335;BME280;3708;42.632;23.378;2023-05-21T10:19:43;94064.31;;;27.29;25.97
7335;BME280;3708;42.632;23.378;2023-05-21T10:22:12;94058.50;;;27.18;25.89
7335;BME280;3708;42.632;23.378;2023-05-21T10:24:42;94066.69;;;27.27;26.05
7335;BME280;3708;42.632;23.378;2023-05-21T10:27:11;94065.25;;;27.10;26.01
7335;BME280;3708;42.632;23.378;2023-05-21T10:29:40;94059.81;;;26.56;26.88
7335;BME280;3708;42.632;23.378;2023-05-21T10:32:11;94055.19;;;26.85;26.85
7335;BME280;3708;42.632;23.378;2023-05-21T10:34:38;94051.16;;;26.93;27.01
7335;BME280;3708;42.632;23.378;2023-05-21T10:37:07;94050.13;;;26.75;27.11
7335;BME280;3708;42.632;23.378;2023-05-21T10:39:35;94050.06;;;26.91;27.27
7335;BME280;3708;42.632;23.378;2023-05-21T10:42:11;94056.28;;;26.88;27.24
7335;BME280;3708;42.632;23.378;2023-05-21T10:44:52;94045.41;;;26.79;28.03
7335;BME280;3708;42.632;23.378;2023-05-21T10:47:51;94053.69;;;26.56;28.38
7335;BME280;3708;42.632;23.378;2023-05-21T10:50:36;94054.66;;;26.78;28.37
7335;BME280;3708;42.632;23.378;2023-05-21T10:53:12;94049.03;;;26.43;28.75
7335;BME280;3708;42.632;23.378;2023-05-21T10:55:49;94052.38;;;26.48;29.08
7335;BME280;3708;42.632;23.378;2023-05-21T10:58:47;94044.16;;;26.38;29.19
7335;BME280;3708;42.632;23.378;2023-05-21T11:01:18;94042.19;;;26.26;29.33
7335;BME280;3708;42.632;23.378;2023-05-21T11:03:45;94052.81;;;26.30;29.24
7335;BME280;3708;42.632;23.378;2023-05-21T11:06:21;94052.34;;;26.03;29.30
7335;BME280;3708;42.632;23.378;2023-05-21T11:08:49;94039.19;;;26.08;29.36
7335;BME280;3708;42.632;23.378;2023-05-21T11:11:38;94043.53;;;26.02;30.20
7335;BME280;3708;42.632;23.378;2023-05-21T11:14:31;94043.28;;;26.13;29.80
7335;BME280;3708;42.632;23.378;2023-05-21T11:17:01;94037.47;;;26.30;29.76
7335;BME280;3708;42.632;23.378;2023-05-21T11:19:34;94036.75;;;26.42;30.01
7335;BME280;3708;42.632;23.378;2023-05-21T11:22:05;94029.00;;;26.61;29.28
7335;BME280;3708;42.632;23.378;2023-05-21T11:24:36;94030.03;;;26.22;29.09
7335;BME280;3708;42.632;23.378;2023-05-21T11:27:04;94032.38;;;26.48;28.81
7335;BME280;3708;42.632;23.378;2023-05-21T11:29:41;94016.50;;;26.54;28.83
7335;BME280;3708;42.632;23.378;2023-05-21T11:32:11;94026.53;;;26.37;28.33
7335;BME280;3708;42.632;23.378;2023-05-21T11:34:41;94011.75;;;26.45;28.78
7335;BME280;3708;42.632;23.378;2023-05-21T11:37:27;94020.22;;;26.44;28.73
7335;BME280;3708;42.632;23.378;2023-05-21T11:39:55;94017.78;;;26.50;28.72
7335;BME280;3708;42.632;23.378;2023-05-21T11:42:30;94026.63;;;26.34;28.86
7335;BME280;3708;42.632;23.378;2023-05-21T11:44:57;94017.59;;;26.12;28.78
7335;BME280;3708;42.632;23.378;2023-05-21T11:47:27;94021.06;;;26.12;29.14
7335;BME280;3708;42.632;23.378;2023-05-21T11:49:56;94017.09;;;26.17;29.12
7335;BME280;3708;42.632;23.378;2023-05-21T11:52:23;94014.84;;;26.15;29.45
7335;BME280;3708;42.632;23.378;2023-05-21T11:54:52;94017.22;;;26.13;30.32
7335;BME280;3708;42.632;23.378;2023-05-21T11:57:21;94012.16;;;25.99;29.86
7335;BME280;3708;42.632;23.378;2023-05-21T11:59:49;94013.34;;;25.82;29.70
7335;BME280;3708;42.632;23.378;2023-05-21T12:02:18;94011.84;;;25.81;30.24
7335;BME280;3708;42.632;23.378;2023-05-21T12:04:48;94018.16;;;25.75;30.45
7335;BME280;3708;42.632;23.378;2023-05-21T12:07:18;94015.50;;;25.39;30.74
7335;BME280;3708;42.632;23.378;2023-05-21T12:09:46;94006.91;;;25.63;30.76
7335;BME280;3708;42.632;23.378;2023-05-21T12:12:14;94003.13;;;25.77;31.09
7335;BME280;3708;42.632;23.378;2023-05-21T12:14:42;93999.16;;;25.82;31.72
7335;BME280;3708;42.632;23.378;2023-05-21T12:17:11;93992.38;;;25.93;31.54
7335;BME280;3708;42.632;23.378;2023-05-21T12:19:39;94004.28;;;25.92;31.96
7335;BME280;3708;42.632;23.378;2023-05-21T12:22:08;94004.28;;;25.92;31.47
7335;BME280;3708;42.632;23.378;2023-05-21T12:24:36;94008.31;;;25.84;32.04
7335;BME280;3708;42.632;23.378;2023-05-21T12:27:05;94008.25;;;25.04;31.74
7335;BME280;3708;42.632;23.378;2023-05-21T12:29:35;94003.66;;;25.20;32.30
7335;BME280;3708;42.632;23.378;2023-05-21T12:32:04;94002.34;;;24.92;32.71
7335;BME280;3708;42.632;23.378;2023-05-21T12:34:40;94004.69;;;24.90;33.06
7335;BME280;3708;42.632;23.378;2023-05-21T12:37:10;93999.16;;;24.97;33.88
7335;BME280;3708;42.632;23.378;2023-05-21T12:39:39;93995.66;;;25.01;33.65
7335;BME280;3708;42.632;23.378;2023-05-21T12:42:06;93997.34;;;25.11;33.94
7335;BME280;3708;42.632;23.378;2023-05-21T12:44:33;93994.84;;;25.20;33.83
7335;BME280;3708;42.632;23.378;2023-05-21T12:47:01;93995.19;;;25.22;34.47
7335;BME280;3708;42.632;23.378;2023-05-21T12:49:35;93987.44;;;24.91;34.11
7335;BME280;3708;42.632;23.378;2023-05-21T12:52:04;93992.00;;;25.11;34.11
7335;BME280;3708;42.632;23.378;2023-05-21T12:54:34;93990.25;;;25.20;34.54
7335;BME280;3708;42.632;23.378;2023-05-21T12:57:08;93984.31;;;25.29;35.08
7335;BME280;3708;42.632;23.378;2023-05-21T12:59:43;93987.44;;;25.27;34.40
7335;BME280;3708;42.632;23.378;2023-05-21T13:02:22;93985.22;;;25.38;34.24
7335;BME280;3708;42.632;23.378;2023-05-21T13:04:54;93986.81;;;25.55;34.70
7335;BME280;3708;42.632;23.378;2023-05-21T13:07:21;93983.53;;;25.64;34.99
7335;BME280;3708;42.632;23.378;2023-05-21T13:09:49;93979.72;;;25.78;34.48
7335;BME280;3708;42.632;23.378;2023-05-21T13:12:18;93982.91;;;25.89;34.43
7335;BME280;3708;42.632;23.378;2023-05-21T13:14:48;93980.38;;;25.98;34.75
7335;BME280;3708;42.632;23.378;2023-05-21T13:17:15;93977.28;;;26.15;33.53
7335;BME280;3708;42.632;23.378;2023-05-21T13:19:59;93969.72;;;26.10;33.41